Constantine, Michigan
Current Conditions -  °F | °C
As of 10:35 PM on Saturday 22 Nov 2014 (Local Time) from KHAI Reporting Station
Overcast Overcast  
Wind Chill: 45°   Ceiling: 2200
Heat Index: 49°   Visibility: 10mi
Dew Point: 45°   Wind: 9mph
Humidity: 84%   Direction: 220°SW
Pressure: 29.92"   Gusts: NA
Location:  41.84°N, 85.67°W
Report Text: KHAI 230335Z AUTO 22008KT 10SM OVC022 10/07 A2992 RMK AO2 T00960070
Loading
Personal Weather Stations






























Interactive Weather Map New forecast layout! Learn more

10-Day Weather Forecast

Advertisements
Track Severe Weather on mobile